sensor_id;sensor_type;location;lat;lon;timestamp;temperature;humidity
20831;DHT22;10576;53.556;9.868;2022-08-21T00:01:06;13.40;99.90
20831;DHT22;10576;53.556;9.868;2022-08-21T00:03:34;13.40;99.90
20831;DHT22;10576;53.556;9.868;2022-08-21T00:06:00;13.40;99.90
20831;DHT22;10576;53.556;9.868;2022-08-21T00:08:25;13.40;99.90
20831;DHT22;10576;53.556;9.868;2022-08-21T00:10:51;13.40;99.90
20831;DHT22;10576;53.556;9.868;2022-08-21T00:13:18;13.40;99.90
20831;DHT22;10576;53.556;9.868;2022-08-21T00:15:45;13.30;99.90
20831;DHT22;10576;53.556;9.868;2022-08-21T00:18:11;13.40;99.90
20831;DHT22;10576;53.556;9.868;2022-08-21T00:20:39;13.30;99.90
20831;DHT22;10576;53.556;9.868;2022-08-21T00:23:04;13.30;99.90
20831;DHT22;10576;53.556;9.868;2022-08-21T00:25:30;13.30;99.90
20831;DHT22;10576;53.556;9.868;2022-08-21T00:27:56;13.30;99.90
20831;DHT22;10576;53.556;9.868;2022-08-21T00:30:24;13.30;99.90
20831;DHT22;10576;53.556;9.868;2022-08-21T00:32:52;13.20;99.90
20831;DHT22;10576;53.556;9.868;2022-08-21T00:35:21;13.20;99.90
20831;DHT22;10576;53.556;9.868;2022-08-21T00:37:47;13.20;99.90
20831;DHT22;10576;53.556;9.868;2022-08-21T00:40:21;13.20;99.90
20831;DHT22;10576;53.556;9.868;2022-08-21T00:42:47;13.20;99.90
20831;DHT22;10576;53.556;9.868;2022-08-21T00:45:13;13.20;99.90
20831;DHT22;10576;53.556;9.868;2022-08-21T00:47:39;13.20;99.90
20831;DHT22;10576;53.556;9.868;2022-08-21T00:50:08;13.20;99.90
20831;DHT22;10576;53.556;9.868;2022-08-21T00:52:36;13.20;99.90
20831;DHT22;10576;53.556;9.868;2022-08-21T00:55:05;13.20;99.90
20831;DHT22;10576;53.556;9.868;2022-08-21T00:57:54;13.10;99.90
20831;DHT22;10576;53.556;9.868;2022-08-21T01:00:29;13.10;99.90
20831;DHT22;10576;53.556;9.868;2022-08-21T01:03:00;13.10;99.90
20831;DHT22;10576;53.556;9.868;2022-08-21T01:05:26;13.00;99.90
20831;DHT22;10576;53.556;9.868;2022-08-21T01:07:53;13.00;99.90
20831;DHT22;10576;53.556;9.868;2022-08-21T01:10:23;12.90;99.90
20831;DHT22;10576;53.556;9.868;2022-08-21T01:12:50;12.90;99.90
20831;DHT22;10576;53.556;9.868;2022-08-21T01:15:17;13.00;99.90
20831;DHT22;10576;53.556;9.868;2022-08-21T01:17:44;13.00;99.90
20831;DHT22;10576;53.556;9.868;2022-08-21T01:20:11;13.00;99.90
20831;DHT22;10576;53.556;9.868;2022-08-21T01:22:37;13.00;99.90
20831;DHT22;10576;53.556;9.868;2022-08-21T01:25:07;13.00;99.90
20831;DHT22;10576;53.556;9.868;2022-08-21T01:27:33;13.00;99.90
20831;DHT22;10576;53.556;9.868;2022-08-21T01:30:20;13.00;99.90
20831;DHT22;10576;53.556;9.868;2022-08-21T01:32:48;13.00;99.90
20831;DHT22;10576;53.556;9.868;2022-08-21T01:35:15;13.00;99.90
20831;DHT22;10576;53.556;9.868;2022-08-21T01:37:41;12.90;99.90
20831;DHT22;10576;53.556;9.868;2022-08-21T01:40:08;12.90;99.90
20831;DHT22;10576;53.556;9.868;2022-08-21T01:42:34;13.00;99.90
20831;DHT22;10576;53.556;9.868;2022-08-21T01:45:00;12.90;99.90
20831;DHT22;10576;53.556;9.868;2022-08-21T01:47:26;12.90;99.90
20831;DHT22;10576;53.556;9.868;2022-08-21T01:49:52;12.90;99.90
20831;DHT22;10576;53.556;9.868;2022-08-21T01:52:18;12.90;99.90
20831;DHT22;10576;53.556;9.868;2022-08-21T01:54:45;12.90;99.90
20831;DHT22;10576;53.556;9.868;2022-08-21T01:57:12;12.90;99.90
20831;DHT22;10576;53.556;9.868;2022-08-21T01:59:38;12.90;99.90
20831;DHT22;10576;53.556;9.868;2022-08-21T02:02:05;12.80;99.90
20831;DHT22;10576;53.556;9.868;2022-08-21T02:04:32;12.80;99.90
20831;DHT22;10576;53.556;9.868;2022-08-21T02:06:58;12.90;99.90
20831;DHT22;10576;53.556;9.868;2022-08-21T02:09:24;12.80;99.90
20831;DHT22;10576;53.556;9.868;2022-08-21T02:11:50;12.80;99.90
20831;DHT22;10576;53.556;9.868;2022-08-21T02:14:16;12.80;99.90
20831;DHT22;10576;53.556;9.868;2022-08-21T02:16:44;12.80;99.90
20831;DHT22;10576;53.556;9.868;2022-08-21T02:19:10;12.70;99.90
20831;DHT22;10576;53.556;9.868;2022-08-21T02:21:36;12.80;99.90
20831;DHT22;10576;53.556;9.868;2022-08-21T02:24:03;12.70;99.90
20831;DHT22;10576;53.556;9.868;2022-08-21T02:26:29;12.70;99.90
20831;DHT22;10576;53.556;9.868;2022-08-21T02:28:54;12.70;99.90
20831;DHT22;10576;53.556;9.868;2022-08-21T02:31:20;12.70;99.90
20831;DHT22;10576;53.556;9.868;2022-08-21T02:33:46;12.70;99.90
20831;DHT22;10576;53.556;9.868;2022-08-21T02:36:12;12.70;99.90
20831;DHT22;10576;53.556;9.868;2022-08-21T02:38:40;12.70;99.90
20831;DHT22;10576;53.556;9.868;2022-08-21T02:41:12;12.70;99.90
20831;DHT22;10576;53.556;9.868;2022-08-21T02:43:38;12.70;99.90
20831;DHT22;10576;53.556;9.868;2022-08-21T02:46:06;12.70;99.90
20831;DHT22;10576;53.556;9.868;2022-08-21T02:48:32;12.70;99.90
20831;DHT22;10576;53.556;9.868;2022-08-21T02:51:02;12.70;99.90
20831;DHT22;10576;53.556;9.868;2022-08-21T02:53:29;12.60;99.90
20831;DHT22;10576;53.556;9.868;2022-08-21T02:55:57;12.60;99.90
20831;DHT22;10576;53.556;9.868;2022-08-21T02:58:27;12.60;99.90
20831;DHT22;10576;53.556;9.868;2022-08-21T03:00:54;12.60;99.90
20831;DHT22;10576;53.556;9.868;2022-08-21T03:03:20;12.50;99.90
20831;DHT22;10576;53.556;9.868;2022-08-21T03:05:46;12.50;99.90
20831;DHT22;10576;53.556;9.868;2022-08-21T03:08:13;12.50;99.90
20831;DHT22;10576;53.556;9.868;2022-08-21T03:10:42;12.50;99.90
20831;DHT22;10576;53.556;9.868;2022-08-21T03:13:09;12.50;99.90
20831;DHT22;10576;53.556;9.868;2022-08-21T03:15:35;12.50;99.90
20831;DHT22;10576;53.556;9.868;2022-08-21T03:18:02;12.50;99.90
20831;DHT22;10576;53.556;9.868;2022-08-21T03:20:29;12.50;99.90
20831;DHT22;10576;53.556;9.868;2022-08-21T03:22:58;12.50;99.90
20831;DHT22;10576;53.556;9.868;2022-08-21T03:25:26;12.50;99.90
20831;DHT22;10576;53.556;9.868;2022-08-21T03:27:52;12.40;99.90
20831;DHT22;10576;53.556;9.868;2022-08-21T03:30:20;12.40;99.90
20831;DHT22;10576;53.556;9.868;2022-08-21T03:32:47;12.40;99.90
20831;DHT22;10576;53.556;9.868;2022-08-21T03:35:13;12.40;99.90
20831;DHT22;10576;53.556;9.868;2022-08-21T03:37:40;12.40;99.90
20831;DHT22;10576;53.556;9.868;2022-08-21T03:40:07;12.30;99.90
20831;DHT22;10576;53.556;9.868;2022-08-21T03:42:34;12.30;99.90
20831;DHT22;10576;53.556;9.868;2022-08-21T03:45:00;12.40;99.90
20831;DHT22;10576;53.556;9.868;2022-08-21T03:47:26;12.40;99.90
20831;DHT22;10576;53.556;9.868;2022-08-21T03:49:52;12.30;99.90
20831;DHT22;10576;53.556;9.868;2022-08-21T03:52:18;12.40;99.90
20831;DHT22;10576;53.556;9.868;2022-08-21T03:54:44;12.40;99.90
20831;DHT22;10576;53.556;9.868;2022-08-21T03:57:10;12.40;99.90
20831;DHT22;10576;53.556;9.868;2022-08-21T03:59:37;12.40;99.90
20831;DHT22;10576;53.556;9.868;2022-08-21T04:02:06;12.40;99.90
20831;DHT22;10576;53.556;9.868;2022-08-21T04:04:33;12.30;99.90
20831;DHT22;10576;53.556;9.868;2022-08-21T04:06:59;12.30;99.90
20831;DHT22;10576;53.556;9.868;2022-08-21T04:09:25;12.30;99.90
20831;DHT22;10576;53.556;9.868;2022-08-21T04:11:52;12.30;99.90
20831;DHT22;10576;53.556;9.868;2022-08-21T04:14:18;12.30;99.90
20831;DHT22;10576;53.556;9.868;2022-08-21T04:16:44;12.30;99.90
20831;DHT22;10576;53.556;9.868;2022-08-21T04:19:10;12.30;99.90
20831;DHT22;10576;53.556;9.868;2022-08-21T04:21:37;12.30;99.90
20831;DHT22;10576;53.556;9.868;2022-08-21T04:24:04;12.30;99.90
20831;DHT22;10576;53.556;9.868;2022-08-21T04:26:30;12.40;99.90
20831;DHT22;10576;53.556;9.868;2022-08-21T04:28:57;12.50;99.90
20831;DHT22;10576;53.556;9.868;2022-08-21T04:31:24;12.50;99.90
20831;DHT22;10576;53.556;9.868;2022-08-21T04:33:50;12.60;99.90
20831;DHT22;10576;53.556;9.868;2022-08-21T04:36:16;12.60;99.90
20831;DHT22;10576;53.556;9.868;2022-08-21T04:38:42;12.70;99.90
20831;DHT22;10576;53.556;9.868;2022-08-21T04:41:08;12.70;99.90
20831;DHT22;10576;53.556;9.868;2022-08-21T04:43:33;12.80;99.90
20831;DHT22;10576;53.556;9.868;2022-08-21T04:45:59;12.80;99.90
20831;DHT22;10576;53.556;9.868;2022-08-21T04:48:26;12.90;99.90
20831;DHT22;10576;53.556;9.868;2022-08-21T04:50:56;13.00;99.90
20831;DHT22;10576;53.556;9.868;2022-08-21T04:53:53;13.00;99.90
20831;DHT22;10576;53.556;9.868;2022-08-21T04:56:26;13.00;99.90
20831;DHT22;10576;53.556;9.868;2022-08-21T04:58:53;13.10;99.90
20831;DHT22;10576;53.556;9.868;2022-08-21T05:01:23;13.10;99.90
20831;DHT22;10576;53.556;9.868;2022-08-21T05:03:52;13.20;99.90
20831;DHT22;10576;53.556;9.868;2022-08-21T05:06:19;13.20;99.90
20831;DHT22;10576;53.556;9.868;2022-08-21T05:08:48;13.30;99.90
20831;DHT22;10576;53.556;9.868;2022-08-21T05:11:14;13.40;99.90
20831;DHT22;10576;53.556;9.868;2022-08-21T05:13:40;13.40;99.90
20831;DHT22;10576;53.556;9.868;2022-08-21T05:16:09;13.50;99.90
20831;DHT22;10576;53.556;9.868;2022-08-21T05:18:34;13.60;99.90
20831;DHT22;10576;53.556;9.868;2022-08-21T05:21:00;13.60;99.90
20831;DHT22;10576;53.556;9.868;2022-08-21T05:23:26;13.70;99.90
20831;DHT22;10576;53.556;9.868;2022-08-21T05:25:52;13.70;99.90
20831;DHT22;10576;53.556;9.868;2022-08-21T05:28:18;13.80;99.90
20831;DHT22;10576;53.556;9.868;2022-08-21T05:30:44;13.80;99.90
20831;DHT22;10576;53.556;9.868;2022-08-21T05:33:10;13.90;99.90
20831;DHT22;10576;53.556;9.868;2022-08-21T05:35:38;13.90;99.90
20831;DHT22;10576;53.556;9.868;2022-08-21T05:38:04;14.00;99.90
20831;DHT22;10576;53.556;9.868;2022-08-21T05:40:30;14.10;99.90
20831;DHT22;10576;53.556;9.868;2022-08-21T05:42:56;14.10;99.90
20831;DHT22;10576;53.556;9.868;2022-08-21T05:45:23;14.20;99.90
20831;DHT22;10576;53.556;9.868;2022-08-21T05:47:50;14.30;99.90
20831;DHT22;10576;53.556;9.868;2022-08-21T05:50:15;14.40;99.90
20831;DHT22;10576;53.556;9.868;2022-08-21T05:52:41;14.50;99.90
20831;DHT22;10576;53.556;9.868;2022-08-21T05:55:07;14.60;99.90
20831;DHT22;10576;53.556;9.868;2022-08-21T05:57:33;14.70;99.90
20831;DHT22;10576;53.556;9.868;2022-08-21T05:59:58;14.90;99.90
20831;DHT22;10576;53.556;9.868;2022-08-21T06:02:24;15.00;99.90
20831;DHT22;10576;53.556;9.868;2022-08-21T06:04:50;15.20;99.90
20831;DHT22;10576;53.556;9.868;2022-08-21T06:07:16;15.30;99.90
20831;DHT22;10576;53.556;9.868;2022-08-21T06:09:42;15.40;99.90
20831;DHT22;10576;53.556;9.868;2022-08-21T06:12:09;15.50;99.90
20831;DHT22;10576;53.556;9.868;2022-08-21T06:14:36;15.50;99.90
20831;DHT22;10576;53.556;9.868;2022-08-21T06:17:07;15.60;99.90
20831;DHT22;10576;53.556;9.868;2022-08-21T06:19:33;15.70;99.90
20831;DHT22;10576;53.556;9.868;2022-08-21T06:21:59;15.80;99.90
20831;DHT22;10576;53.556;9.868;2022-08-21T06:24:26;15.80;99.90
20831;DHT22;10576;53.556;9.868;2022-08-21T06:26:52;15.80;99.90
20831;DHT22;10576;53.556;9.868;2022-08-21T06:29:17;15.80;99.90
20831;DHT22;10576;53.556;9.868;2022-08-21T06:31:45;15.80;99.90
20831;DHT22;10576;53.556;9.868;2022-08-21T06:34:11;15.80;99.90
20831;DHT22;10576;53.556;9.868;2022-08-21T06:36:37;15.80;99.90
20831;DHT22;10576;53.556;9.868;2022-08-21T06:39:03;15.80;99.90
20831;DHT22;10576;53.556;9.868;2022-08-21T06:41:29;15.90;99.90
20831;DHT22;10576;53.556;9.868;2022-08-21T06:43:55;16.00;99.90
20831;DHT22;10576;53.556;9.868;2022-08-21T06:46:23;15.90;99.90
20831;DHT22;10576;53.556;9.868;2022-08-21T06:48:49;16.30;99.90
20831;DHT22;10576;53.556;9.868;2022-08-21T06:51:15;16.50;99.90
20831;DHT22;10576;53.556;9.868;2022-08-21T06:53:41;16.60;99.90
20831;DHT22;10576;53.556;9.868;2022-08-21T06:56:07;16.70;99.90
20831;DHT22;10576;53.556;9.868;2022-08-21T06:58:33;16.70;99.90
20831;DHT22;10576;53.556;9.868;2022-08-21T07:00:59;16.80;99.90
20831;DHT22;10576;53.556;9.868;2022-08-21T07:03:34;16.80;99.90
20831;DHT22;10576;53.556;9.868;2022-08-21T07:06:00;16.90;99.90
20831;DHT22;10576;53.556;9.868;2022-08-21T07:08:26;17.00;99.90
20831;DHT22;10576;53.556;9.868;2022-08-21T07:10:54;17.10;99.90
20831;DHT22;10576;53.556;9.868;2022-08-21T07:13:20;17.10;99.90
20831;DHT22;10576;53.556;9.868;2022-08-21T07:15:46;17.10;99.90
20831;DHT22;10576;53.556;9.868;2022-08-21T07:18:13;17.20;99.90
20831;DHT22;10576;53.556;9.868;2022-08-21T07:20:39;17.40;99.90
20831;DHT22;10576;53.556;9.868;2022-08-21T07:23:10;17.50;99.90
20831;DHT22;10576;53.556;9.868;2022-08-21T07:25:38;17.50;99.90
20831;DHT22;10576;53.556;9.868;2022-08-21T07:28:04;17.60;99.90
20831;DHT22;10576;53.556;9.868;2022-08-21T07:30:30;17.70;99.90
20831;DHT22;10576;53.556;9.868;2022-08-21T07:32:57;17.80;99.90
20831;DHT22;10576;53.556;9.868;2022-08-21T07:35:23;18.00;99.90
20831;DHT22;10576;53.556;9.868;2022-08-21T07:37:49;18.10;99.90
20831;DHT22;10576;53.556;9.868;2022-08-21T07:40:16;18.30;99.90
20831;DHT22;10576;53.556;9.868;2022-08-21T07:42:45;18.40;99.90
20831;DHT22;10576;53.556;9.868;2022-08-21T07:45:13;18.50;99.90
20831;DHT22;10576;53.556;9.868;2022-08-21T07:47:39;18.50;99.90
20831;DHT22;10576;53.556;9.868;2022-08-21T07:50:06;18.60;99.90
20831;DHT22;10576;53.556;9.868;2022-08-21T07:52:32;18.80;99.90
20831;DHT22;10576;53.556;9.868;2022-08-21T07:54:59;19.00;99.90
20831;DHT22;10576;53.556;9.868;2022-08-21T07:57:25;19.40;99.90
20831;DHT22;10576;53.556;9.868;2022-08-21T07:59:50;19.70;99.90
20831;DHT22;10576;53.556;9.868;2022-08-21T08:02:25;20.00;99.90
20831;DHT22;10576;53.556;9.868;2022-08-21T08:04:51;20.20;99.90
20831;DHT22;10576;53.556;9.868;2022-08-21T08:07:17;20.50;99.90
20831;DHT22;10576;53.556;9.868;2022-08-21T08:09:43;20.70;99.90
20831;DHT22;10576;53.556;9.868;2022-08-21T08:12:09;21.10;99.90
20831;DHT22;10576;53.556;9.868;2022-08-21T08:14:35;21.30;99.90
20831;DHT22;10576;53.556;9.868;2022-08-21T08:17:01;21.60;99.90
20831;DHT22;10576;53.556;9.868;2022-08-21T08:19:28;22.00;99.90
20831;DHT22;10576;53.556;9.868;2022-08-21T08:21:54;22.20;99.90
20831;DHT22;10576;53.556;9.868;2022-08-21T08:24:20;22.40;99.90
20831;DHT22;10576;53.556;9.868;2022-08-21T08:26:46;22.50;99.90
20831;DHT22;10576;53.556;9.868;2022-08-21T08:29:11;22.60;99.90
20831;DHT22;10576;53.556;9.868;2022-08-21T08:31:37;22.70;99.90
20831;DHT22;10576;53.556;9.868;2022-08-21T08:34:03;22.80;99.90
20831;DHT22;10576;53.556;9.868;2022-08-21T08:36:34;23.00;99.90
20831;DHT22;10576;53.556;9.868;2022-08-21T08:39:01;22.90;99.90
20831;DHT22;10576;53.556;9.868;2022-08-21T08:41:27;22.60;99.90
20831;DHT22;10576;53.556;9.868;2022-08-21T08:43:56;22.90;99.90
20831;DHT22;10576;53.556;9.868;2022-08-21T08:46:45;23.10;99.90
20831;DHT22;10576;53.556;9.868;2022-08-21T08:51:47;23.10;99.90
20831;DHT22;10576;53.556;9.868;2022-08-21T08:54:28;23.30;99.90
20831;DHT22;10576;53.556;9.868;2022-08-21T08:56:59;23.20;99.90
20831;DHT22;10576;53.556;9.868;2022-08-21T08:59:50;23.30;99.90
20831;DHT22;10576;53.556;9.868;2022-08-21T09:02:17;23.50;99.90
20831;DHT22;10576;53.556;9.868;2022-08-21T09:04:44;23.30;99.90
20831;DHT22;10576;53.556;9.868;2022-08-21T09:10:17;23.70;99.90
20831;DHT22;10576;53.556;9.868;2022-08-21T09:26:27;23.70;99.90
20831;DHT22;10576;53.556;9.868;2022-08-21T09:28:58;23.50;99.90
20831;DHT22;10576;53.556;9.868;2022-08-21T09:31:34;23.60;99.90
20831;DHT22;10576;53.556;9.868;2022-08-21T09:34:05;24.00;99.90
20831;DHT22;10576;53.556;9.868;2022-08-21T09:39:07;24.10;99.90
20831;DHT22;10576;53.556;9.868;2022-08-21T09:41:35;24.10;99.90
20831;DHT22;10576;53.556;9.868;2022-08-21T09:44:03;24.10;99.90
20831;DHT22;10576;53.556;9.868;2022-08-21T09:46:29;24.20;99.90
20831;DHT22;10576;53.556;9.868;2022-08-21T09:48:58;24.30;99.90
20831;DHT22;10576;53.556;9.868;2022-08-21T09:51:36;24.60;99.90
20831;DHT22;10576;53.556;9.868;2022-08-21T09:56:40;24.80;99.90
20831;DHT22;10576;53.556;9.868;2022-08-21T09:59:35;25.00;99.90
20831;DHT22;10576;53.556;9.868;2022-08-21T10:05:14;25.40;99.90
20831;DHT22;10576;53.556;9.868;2022-08-21T10:07:40;25.10;99.90
20831;DHT22;10576;53.556;9.868;2022-08-21T10:10:22;25.40;99.90
20831;DHT22;10576;53.556;9.868;2022-08-21T10:12:49;25.10;99.90
20831;DHT22;10576;53.556;9.868;2022-08-21T10:15:35;25.10;99.90
20831;DHT22;10576;53.556;9.868;2022-08-21T10:20:46;25.40;99.90
20831;DHT22;10576;53.556;9.868;2022-08-21T10:47:57;24.90;99.90
20831;DHT22;10576;53.556;9.868;2022-08-21T10:50:44;24.80;99.90
20831;DHT22;10576;53.556;9.868;2022-08-21T10:56:32;24.90;99.90
20831;DHT22;10576;53.556;9.868;2022-08-21T11:01:56;25.60;99.90
20831;DHT22;10576;53.556;9.868;2022-08-21T11:04:34;25.10;99.90
20831;DHT22;10576;53.556;9.868;2022-08-21T11:07:32;25.00;99.90
20831;DHT22;10576;53.556;9.868;2022-08-21T11:10:07;25.40;99.90
20831;DHT22;10576;53.556;9.868;2022-08-21T11:12:50;25.40;99.90
20831;DHT22;10576;53.556;9.868;2022-08-21T11:17:57;25.80;99.90
20831;DHT22;10576;53.556;9.868;2022-08-21T11:20:36;25.50;99.90
20831;DHT22;10576;53.556;9.868;2022-08-21T11:23:18;25.60;99.90
20831;DHT22;10576;53.556;9.868;2022-08-21T11:25:51;25.20;99.90
20831;DHT22;10576;53.556;9.868;2022-08-21T11:28:26;25.10;99.90
20831;DHT22;10576;53.556;9.868;2022-08-21T11:31:17;25.40;99.90
20831;DHT22;10576;53.556;9.868;2022-08-21T11:38:48;26.00;99.90
20831;DHT22;10576;53.556;9.868;2022-08-21T11:41:40;25.90;99.90
20831;DHT22;10576;53.556;9.868;2022-08-21T11:44:36;25.70;99.90
20831;DHT22;10576;53.556;9.868;2022-08-21T11:47:43;25.40;99.90
20831;DHT22;10576;53.556;9.868;2022-08-21T11:50:17;24.80;99.90
20831;DHT22;10576;53.556;9.868;2022-08-21T11:53:14;24.50;99.90
20831;DHT22;10576;53.556;9.868;2022-08-21T11:56:15;24.90;99.90
20831;DHT22;10576;53.556;9.868;2022-08-21T11:58:49;25.00;99.90
20831;DHT22;10576;53.556;9.868;2022-08-21T12:01:20;25.00;99.90
20831;DHT22;10576;53.556;9.868;2022-08-21T12:03:58;24.70;99.90
20831;DHT22;10576;53.556;9.868;2022-08-21T12:06:36;24.50;99.90
20831;DHT22;10576;53.556;9.868;2022-08-21T12:14:41;24.00;99.90
20831;DHT22;10576;53.556;9.868;2022-08-21T12:17:09;24.00;99.90
20831;DHT22;10576;53.556;9.868;2022-08-21T12:19:41;24.40;99.90
20831;DHT22;10576;53.556;9.868;2022-08-21T12:22:12;24.90;99.90
20831;DHT22;10576;53.556;9.868;2022-08-21T12:24:44;25.10;99.90
20831;DHT22;10576;53.556;9.868;2022-08-21T12:29:55;24.80;99.90
20831;DHT22;10576;53.556;9.868;2022-08-21T12:32:30;25.20;99.90
20831;DHT22;10576;53.556;9.868;2022-08-21T12:40:00;25.50;99.90
20831;DHT22;10576;53.556;9.868;2022-08-21T12:42:39;25.50;99.90
20831;DHT22;10576;53.556;9.868;2022-08-21T12:47:54;24.90;99.90
20831;DHT22;10576;53.556;9.868;2022-08-21T12:50:29;24.60;99.90
20831;DHT22;10576;53.556;9.868;2022-08-21T12:54:06;24.40;99.90
20831;DHT22;10576;53.556;9.868;2022-08-21T12:56:15;24.20;99.90
20831;DHT22;10576;53.556;9.868;2022-08-21T12:58:56;24.30;99.90
20831;DHT22;10576;53.556;9.868;2022-08-21T13:04:39;25.00;99.90
20831;DHT22;10576;53.556;9.868;2022-08-21T13:07:10;25.40;99.90
20831;DHT22;10576;53.556;9.868;2022-08-21T13:09:51;25.60;99.90
20831;DHT22;10576;53.556;9.868;2022-08-21T13:12:20;25.60;99.90
20831;DHT22;10576;53.556;9.868;2022-08-21T13:14:49;25.70;99.90
20831;DHT22;10576;53.556;9.868;2022-08-21T13:17:20;25.70;99.90
20831;DHT22;10576;53.556;9.868;2022-08-21T13:19:54;25.70;99.90
20831;DHT22;10576;53.556;9.868;2022-08-21T13:22:20;25.40;99.90
20831;DHT22;10576;53.556;9.868;2022-08-21T13:24:48;24.90;99.90
20831;DHT22;10576;53.556;9.868;2022-08-21T13:27:30;24.70;99.90
20831;DHT22;10576;53.556;9.868;2022-08-21T13:30:12;25.00;99.90
20831;DHT22;10576;53.556;9.868;2022-08-21T13:32:44;25.30;99.90
20831;DHT22;10576;53.556;9.868;2022-08-21T13:35:15;25.00;99.90
20831;DHT22;10576;53.556;9.868;2022-08-21T13:37:43;25.00;99.90
20831;DHT22;10576;53.556;9.868;2022-08-21T13:40:16;25.00;99.90
20831;DHT22;10576;53.556;9.868;2022-08-21T13:42:45;25.20;99.90
20831;DHT22;10576;53.556;9.868;2022-08-21T13:45:35;25.30;99.90
20831;DHT22;10576;53.556;9.868;2022-08-21T13:48:01;25.00;99.90
20831;DHT22;10576;53.556;9.868;2022-08-21T13:50:28;25.00;99.90
20831;DHT22;10576;53.556;9.868;2022-08-21T13:53:05;25.00;99.90
20831;DHT22;10576;53.556;9.868;2022-08-21T13:55:41;24.90;99.90
20831;DHT22;10576;53.556;9.868;2022-08-21T13:58:08;24.90;99.90
20831;DHT22;10576;53.556;9.868;2022-08-21T14:00:46;25.10;99.90
20831;DHT22;10576;53.556;9.868;2022-08-21T14:03:51;25.10;99.90
20831;DHT22;10576;53.556;9.868;2022-08-21T14:06:16;25.10;99.90
20831;DHT22;10576;53.556;9.868;2022-08-21T14:11:19;25.10;99.90
20831;DHT22;10576;53.556;9.868;2022-08-21T14:16:24;24.90;99.90
20831;DHT22;10576;53.556;9.868;2022-08-21T14:21:34;24.80;99.90
20831;DHT22;10576;53.556;9.868;2022-08-21T14:24:12;24.70;99.90
20831;DHT22;10576;53.556;9.868;2022-08-21T14:26:50;24.70;99.90
20831;DHT22;10576;53.556;9.868;2022-08-21T14:29:18;24.70;99.90
20831;DHT22;10576;53.556;9.868;2022-08-21T14:31:58;24.70;99.90
20831;DHT22;10576;53.556;9.868;2022-08-21T14:34:27;24.70;99.90
20831;DHT22;10576;53.556;9.868;2022-08-21T14:36:55;24.70;99.90
20831;DHT22;10576;53.556;9.868;2022-08-21T14:39:21;24.70;99.90
20831;DHT22;10576;53.556;9.868;2022-08-21T14:41:47;24.70;99.90
20831;DHT22;10576;53.556;9.868;2022-08-21T14:44:15;24.50;99.90
20831;DHT22;10576;53.556;9.868;2022-08-21T14:46:42;24.30;99.90
20831;DHT22;10576;53.556;9.868;2022-08-21T14:49:07;24.30;99.90
20831;DHT22;10576;53.556;9.868;2022-08-21T14:51:33;24.30;99.90
20831;DHT22;10576;53.556;9.868;2022-08-21T14:53:59;24.30;99.90
20831;DHT22;10576;53.556;9.868;2022-08-21T14:56:25;24.30;99.90
20831;DHT22;10576;53.556;9.868;2022-08-21T14:58:52;24.40;99.90
20831;DHT22;10576;53.556;9.868;2022-08-21T15:01:20;24.30;99.90
20831;DHT22;10576;53.556;9.868;2022-08-21T15:03:47;24.30;99.90
20831;DHT22;10576;53.556;9.868;2022-08-21T15:06:14;24.30;99.90
20831;DHT22;10576;53.556;9.868;2022-08-21T15:08:41;24.20;99.90
20831;DHT22;10576;53.556;9.868;2022-08-21T15:11:08;24.20;99.90
20831;DHT22;10576;53.556;9.868;2022-08-21T15:13:36;24.10;99.90
20831;DHT22;10576;53.556;9.868;2022-08-21T15:16:03;23.90;99.90
20831;DHT22;10576;53.556;9.868;2022-08-21T15:18:29;23.90;99.90
20831;DHT22;10576;53.556;9.868;2022-08-21T15:20:55;24.00;99.90
20831;DHT22;10576;53.556;9.868;2022-08-21T15:23:22;24.60;99.90
20831;DHT22;10576;53.556;9.868;2022-08-21T15:25:48;24.00;99.90
20831;DHT22;10576;53.556;9.868;2022-08-21T15:28:16;23.90;99.90
20831;DHT22;10576;53.556;9.868;2022-08-21T15:30:44;23.90;99.90
20831;DHT22;10576;53.556;9.868;2022-08-21T15:33:10;23.90;99.90
20831;DHT22;10576;53.556;9.868;2022-08-21T15:35:36;23.90;99.90
20831;DHT22;10576;53.556;9.868;2022-08-21T15:38:02;23.90;99.90
20831;DHT22;10576;53.556;9.868;2022-08-21T15:40:28;23.90;99.90
20831;DHT22;10576;53.556;9.868;2022-08-21T15:42:58;23.90;99.90
20831;DHT22;10576;53.556;9.868;2022-08-21T15:45:25;23.90;99.90
20831;DHT22;10576;53.556;9.868;2022-08-21T15:47:51;23.90;99.90
20831;DHT22;10576;53.556;9.868;2022-08-21T15:50:17;23.00;99.90
20831;DHT22;10576;53.556;9.868;2022-08-21T15:52:43;23.90;99.90
20831;DHT22;10576;53.556;9.868;2022-08-21T15:55:09;23.80;99.90
20831;DHT22;10576;53.556;9.868;2022-08-21T15:57:36;23.80;99.90
20831;DHT22;10576;53.556;9.868;2022-08-21T16:00:16;23.70;99.90
20831;DHT22;10576;53.556;9.868;2022-08-21T16:02:44;23.70;99.90
20831;DHT22;10576;53.556;9.868;2022-08-21T16:05:12;23.50;99.90
20831;DHT22;10576;53.556;9.868;2022-08-21T16:07:40;23.50;99.90
20831;DHT22;10576;53.556;9.868;2022-08-21T16:10:06;23.50;99.90
20831;DHT22;10576;53.556;9.868;2022-08-21T16:12:35;23.50;99.90
20831;DHT22;10576;53.556;9.868;2022-08-21T16:15:05;23.50;99.90
20831;DHT22;10576;53.556;9.868;2022-08-21T16:17:34;23.50;99.90
20831;DHT22;10576;53.556;9.868;2022-08-21T16:20:02;23.50;99.90
20831;DHT22;10576;53.556;9.868;2022-08-21T16:22:29;23.40;99.90
20831;DHT22;10576;53.556;9.868;2022-08-21T16:24:54;23.40;99.90
20831;DHT22;10576;53.556;9.868;2022-08-21T16:27:20;23.30;99.90
20831;DHT22;10576;53.556;9.868;2022-08-21T16:29:46;23.30;99.90
20831;DHT22;10576;53.556;9.868;2022-08-21T16:32:13;23.30;99.90
20831;DHT22;10576;53.556;9.868;2022-08-21T16:34:45;23.20;99.90
20831;DHT22;10576;53.556;9.868;2022-08-21T16:37:12;23.10;99.90
20831;DHT22;10576;53.556;9.868;2022-08-21T16:39:38;23.00;99.90
20831;DHT22;10576;53.556;9.868;2022-08-21T16:42:04;22.90;99.90
20831;DHT22;10576;53.556;9.868;2022-08-21T16:44:31;22.90;99.90
20831;DHT22;10576;53.556;9.868;2022-08-21T16:46:59;22.80;99.90
20831;DHT22;10576;53.556;9.868;2022-08-21T16:49:25;22.60;99.90
20831;DHT22;10576;53.556;9.868;2022-08-21T16:51:51;22.60;99.90
20831;DHT22;10576;53.556;9.868;2022-08-21T16:54:16;22.50;99.90
20831;DHT22;10576;53.556;9.868;2022-08-21T16:56:43;22.40;99.90
20831;DHT22;10576;53.556;9.868;2022-08-21T16:59:10;22.40;99.90
20831;DHT22;10576;53.556;9.868;2022-08-21T17:01:36;22.40;99.90
20831;DHT22;10576;53.556;9.868;2022-08-21T17:04:02;22.40;99.90
20831;DHT22;10576;53.556;9.868;2022-08-21T17:06:28;22.40;99.90
20831;DHT22;10576;53.556;9.868;2022-08-21T17:08:56;22.30;99.90
20831;DHT22;10576;53.556;9.868;2022-08-21T17:11:39;22.30;99.90
20831;DHT22;10576;53.556;9.868;2022-08-21T17:14:08;22.20;99.90
20831;DHT22;10576;53.556;9.868;2022-08-21T17:16:36;22.20;99.90
20831;DHT22;10576;53.556;9.868;2022-08-21T17:19:03;22.20;99.90